sensor_id;sensor_type;location;lat;lon;timestamp;temperature;humidity
21459;DHT22;10891;49.350;19.386;2023-05-10T00:01:00;2.70;99.90
21459;DHT22;10891;49.350;19.386;2023-05-10T00:03:28;2.60;99.90
21459;DHT22;10891;49.350;19.386;2023-05-10T00:05:54;2.60;99.90
21459;DHT22;10891;49.350;19.386;2023-05-10T00:08:21;2.60;99.90
21459;DHT22;10891;49.350;19.386;2023-05-10T00:10:48;2.50;99.90
21459;DHT22;10891;49.350;19.386;2023-05-10T00:13:15;2.40;99.90
21459;DHT22;10891;49.350;19.386;2023-05-10T00:15:44;2.40;99.90
21459;DHT22;10891;49.350;19.386;2023-05-10T00:18:10;2.30;99.90
21459;DHT22;10891;49.350;19.386;2023-05-10T00:20:37;2.30;99.90
21459;DHT22;10891;49.350;19.386;2023-05-10T00:23:04;2.20;99.90
21459;DHT22;10891;49.350;19.386;2023-05-10T00:25:31;2.20;99.90
21459;DHT22;10891;49.350;19.386;2023-05-10T00:27:58;2.20;99.90
21459;DHT22;10891;49.350;19.386;2023-05-10T00:30:26;2.20;99.90
21459;DHT22;10891;49.350;19.386;2023-05-10T00:32:55;2.20;99.90
21459;DHT22;10891;49.350;19.386;2023-05-10T00:35:22;2.20;99.90
21459;DHT22;10891;49.350;19.386;2023-05-10T00:37:49;2.10;99.90
21459;DHT22;10891;49.350;19.386;2023-05-10T00:40:16;2.10;99.90
21459;DHT22;10891;49.350;19.386;2023-05-10T00:42:42;2.10;99.90
21459;DHT22;10891;49.350;19.386;2023-05-10T00:45:09;2.00;99.90
21459;DHT22;10891;49.350;19.386;2023-05-10T00:47:37;2.00;99.90
21459;DHT22;10891;49.350;19.386;2023-05-10T00:50:06;2.00;99.90
21459;DHT22;10891;49.350;19.386;2023-05-10T00:52:34;2.00;99.90
21459;DHT22;10891;49.350;19.386;2023-05-10T00:55:01;2.00;99.90
21459;DHT22;10891;49.350;19.386;2023-05-10T00:57:28;1.90;99.90
21459;DHT22;10891;49.350;19.386;2023-05-10T00:59:56;1.90;99.90
21459;DHT22;10891;49.350;19.386;2023-05-10T01:02:24;1.90;99.90
21459;DHT22;10891;49.350;19.386;2023-05-10T01:04:51;1.80;99.90
21459;DHT22;10891;49.350;19.386;2023-05-10T01:07:19;1.80;99.90
21459;DHT22;10891;49.350;19.386;2023-05-10T01:09:46;1.80;99.90
21459;DHT22;10891;49.350;19.386;2023-05-10T01:12:13;1.70;99.90
21459;DHT22;10891;49.350;19.386;2023-05-10T01:14:40;1.70;99.90
21459;DHT22;10891;49.350;19.386;2023-05-10T01:17:07;1.70;99.90
21459;DHT22;10891;49.350;19.386;2023-05-10T01:19:35;1.70;99.90
21459;DHT22;10891;49.350;19.386;2023-05-10T01:22:07;1.70;99.90
21459;DHT22;10891;49.350;19.386;2023-05-10T01:24:51;1.70;99.90
21459;DHT22;10891;49.350;19.386;2023-05-10T01:27:55;1.60;99.90
21459;DHT22;10891;49.350;19.386;2023-05-10T01:31:02;1.60;99.90
21459;DHT22;10891;49.350;19.386;2023-05-10T01:33:35;1.50;99.90
21459;DHT22;10891;49.350;19.386;2023-05-10T01:36:08;1.30;99.90
21459;DHT22;10891;49.350;19.386;2023-05-10T01:38:44;1.20;99.90
21459;DHT22;10891;49.350;19.386;2023-05-10T01:41:18;1.10;99.90
21459;DHT22;10891;49.350;19.386;2023-05-10T01:43:54;1.10;99.90
21459;DHT22;10891;49.350;19.386;2023-05-10T01:46:27;1.10;99.90
21459;DHT22;10891;49.350;19.386;2023-05-10T01:48:58;1.10;99.90
21459;DHT22;10891;49.350;19.386;2023-05-10T01:51:31;1.10;99.90
21459;DHT22;10891;49.350;19.386;2023-05-10T01:54:03;1.00;99.90
21459;DHT22;10891;49.350;19.386;2023-05-10T01:56:33;1.00;99.90
21459;DHT22;10891;49.350;19.386;2023-05-10T01:59:04;1.00;99.90
21459;DHT22;10891;49.350;19.386;2023-05-10T02:01:33;1.00;99.90
21459;DHT22;10891;49.350;19.386;2023-05-10T02:04:05;0.90;99.90
21459;DHT22;10891;49.350;19.386;2023-05-10T02:06:33;0.90;99.90
21459;DHT22;10891;49.350;19.386;2023-05-10T02:09:01;0.90;99.90
21459;DHT22;10891;49.350;19.386;2023-05-10T02:11:29;0.90;99.90
21459;DHT22;10891;49.350;19.386;2023-05-10T02:13:58;0.80;99.90
21459;DHT22;10891;49.350;19.386;2023-05-10T02:16:26;0.80;99.90
21459;DHT22;10891;49.350;19.386;2023-05-10T02:18:57;0.70;99.90
21459;DHT22;10891;49.350;19.386;2023-05-10T02:21:28;0.70;99.90
21459;DHT22;10891;49.350;19.386;2023-05-10T02:23:57;0.70;99.90
21459;DHT22;10891;49.350;19.386;2023-05-10T02:26:25;0.60;99.90
21459;DHT22;10891;49.350;19.386;2023-05-10T02:28:53;0.60;99.90
21459;DHT22;10891;49.350;19.386;2023-05-10T02:31:21;0.60;99.90
21459;DHT22;10891;49.350;19.386;2023-05-10T02:33:49;0.50;99.90
21459;DHT22;10891;49.350;19.386;2023-05-10T02:36:16;0.50;99.90
21459;DHT22;10891;49.350;19.386;2023-05-10T02:38:46;0.50;99.90
21459;DHT22;10891;49.350;19.386;2023-05-10T02:41:14;0.50;99.90
21459;DHT22;10891;49.350;19.386;2023-05-10T02:43:42;0.50;99.90
21459;DHT22;10891;49.350;19.386;2023-05-10T02:46:09;0.50;99.90
21459;DHT22;10891;49.350;19.386;2023-05-10T02:48:36;0.40;99.90
21459;DHT22;10891;49.350;19.386;2023-05-10T02:51:06;0.40;99.90
21459;DHT22;10891;49.350;19.386;2023-05-10T02:53:36;0.40;99.90
21459;DHT22;10891;49.350;19.386;2023-05-10T02:56:12;0.40;99.90
21459;DHT22;10891;49.350;19.386;2023-05-10T02:58:40;0.30;99.90
21459;DHT22;10891;49.350;19.386;2023-05-10T03:01:07;0.20;99.90
21459;DHT22;10891;49.350;19.386;2023-05-10T03:03:34;0.20;99.90
21459;DHT22;10891;49.350;19.386;2023-05-10T03:06:01;0.20;99.90
21459;DHT22;10891;49.350;19.386;2023-05-10T03:08:28;0.10;99.90
21459;DHT22;10891;49.350;19.386;2023-05-10T03:11:03;0.20;99.90
21459;DHT22;10891;49.350;19.386;2023-05-10T03:13:39;0.30;99.90
21459;DHT22;10891;49.350;19.386;2023-05-10T03:16:10;0.30;99.90
21459;DHT22;10891;49.350;19.386;2023-05-10T03:18:44;0.40;99.90
21459;DHT22;10891;49.350;19.386;2023-05-10T03:21:18;0.40;99.90
21459;DHT22;10891;49.350;19.386;2023-05-10T03:23:50;0.40;99.90
21459;DHT22;10891;49.350;19.386;2023-05-10T03:26:21;0.50;99.90
21459;DHT22;10891;49.350;19.386;2023-05-10T03:28:52;0.60;99.90
21459;DHT22;10891;49.350;19.386;2023-05-10T03:31:20;0.70;99.90
21459;DHT22;10891;49.350;19.386;2023-05-10T03:33:47;0.70;99.90
21459;DHT22;10891;49.350;19.386;2023-05-10T03:36:14;0.70;99.90
21459;DHT22;10891;49.350;19.386;2023-05-10T03:38:41;0.70;99.90
21459;DHT22;10891;49.350;19.386;2023-05-10T03:41:08;0.70;99.90
21459;DHT22;10891;49.350;19.386;2023-05-10T03:43:35;0.70;99.90
21459;DHT22;10891;49.350;19.386;2023-05-10T03:46:04;0.80;99.90
21459;DHT22;10891;49.350;19.386;2023-05-10T03:48:32;0.80;99.90
21459;DHT22;10891;49.350;19.386;2023-05-10T03:50:59;0.90;99.90
21459;DHT22;10891;49.350;19.386;2023-05-10T03:53:26;1.10;99.90
21459;DHT22;10891;49.350;19.386;2023-05-10T03:55:53;3.30;99.90
21459;DHT22;10891;49.350;19.386;2023-05-10T03:58:20;5.40;99.90
21459;DHT22;10891;49.350;19.386;2023-05-10T04:00:47;6.70;99.90
21459;DHT22;10891;49.350;19.386;2023-05-10T04:03:15;8.00;99.90
21459;DHT22;10891;49.350;19.386;2023-05-10T04:05:42;9.30;99.90
21459;DHT22;10891;49.350;19.386;2023-05-10T04:08:09;10.40;99.90
21459;DHT22;10891;49.350;19.386;2023-05-10T04:10:36;11.30;99.90
21459;DHT22;10891;49.350;19.386;2023-05-10T04:13:03;12.00;99.90
21459;DHT22;10891;49.350;19.386;2023-05-10T04:15:30;12.70;99.90
21459;DHT22;10891;49.350;19.386;2023-05-10T04:17:56;12.30;99.90
21459;DHT22;10891;49.350;19.386;2023-05-10T04:20:25;11.80;99.90
21459;DHT22;10891;49.350;19.386;2023-05-10T04:22:52;12.40;99.90
21459;DHT22;10891;49.350;19.386;2023-05-10T04:25:19;13.10;99.70
21459;DHT22;10891;49.350;19.386;2023-05-10T04:27:46;14.00;98.60
21459;DHT22;10891;49.350;19.386;2023-05-10T04:30:13;14.80;97.40
21459;DHT22;10891;49.350;19.386;2023-05-10T04:32:39;15.20;96.30
21459;DHT22;10891;49.350;19.386;2023-05-10T04:35:07;15.60;95.60
21459;DHT22;10891;49.350;19.386;2023-05-10T04:37:36;15.90;95.00
21459;DHT22;10891;49.350;19.386;2023-05-10T04:40:04;15.50;95.10
21459;DHT22;10891;49.350;19.386;2023-05-10T04:42:31;15.80;95.20
21459;DHT22;10891;49.350;19.386;2023-05-10T04:44:58;16.40;94.50
21459;DHT22;10891;49.350;19.386;2023-05-10T04:47:25;17.10;93.50
21459;DHT22;10891;49.350;19.386;2023-05-10T04:49:52;17.60;92.40
21459;DHT22;10891;49.350;19.386;2023-05-10T04:52:19;17.90;92.10
21459;DHT22;10891;49.350;19.386;2023-05-10T04:54:48;17.80;92.00
21459;DHT22;10891;49.350;19.386;2023-05-10T04:57:16;18.30;91.30
21459;DHT22;10891;49.350;19.386;2023-05-10T04:59:44;17.90;91.60
21459;DHT22;10891;49.350;19.386;2023-05-10T05:02:11;18.20;90.80
21459;DHT22;10891;49.350;19.386;2023-05-10T05:04:38;18.30;90.70
21459;DHT22;10891;49.350;19.386;2023-05-10T05:07:05;18.30;90.80
21459;DHT22;10891;49.350;19.386;2023-05-10T05:09:32;17.60;91.20
21459;DHT22;10891;49.350;19.386;2023-05-10T05:12:01;18.00;91.30
21459;DHT22;10891;49.350;19.386;2023-05-10T05:14:31;18.80;90.70
21459;DHT22;10891;49.350;19.386;2023-05-10T05:17:01;19.20;90.30
21459;DHT22;10891;49.350;19.386;2023-05-10T05:19:31;19.70;90.20
21459;DHT22;10891;49.350;19.386;2023-05-10T05:21:58;19.70;89.00
21459;DHT22;10891;49.350;19.386;2023-05-10T05:24:25;20.20;89.50
21459;DHT22;10891;49.350;19.386;2023-05-10T05:26:52;20.50;88.00
21459;DHT22;10891;49.350;19.386;2023-05-10T05:29:21;20.20;88.50
21459;DHT22;10891;49.350;19.386;2023-05-10T05:31:48;20.50;88.30
21459;DHT22;10891;49.350;19.386;2023-05-10T05:34:16;20.90;86.80
21459;DHT22;10891;49.350;19.386;2023-05-10T05:36:43;20.20;87.30
21459;DHT22;10891;49.350;19.386;2023-05-10T05:39:11;20.00;88.70
21459;DHT22;10891;49.350;19.386;2023-05-10T05:41:39;19.90;89.60
21459;DHT22;10891;49.350;19.386;2023-05-10T05:44:07;19.00;89.40
21459;DHT22;10891;49.350;19.386;2023-05-10T05:46:35;18.70;90.20
21459;DHT22;10891;49.350;19.386;2023-05-10T05:49:03;17.60;91.10
21459;DHT22;10891;49.350;19.386;2023-05-10T05:51:31;16.00;93.20
21459;DHT22;10891;49.350;19.386;2023-05-10T05:54:01;15.30;93.80
21459;DHT22;10891;49.350;19.386;2023-05-10T05:56:30;15.70;94.40
21459;DHT22;10891;49.350;19.386;2023-05-10T05:58:57;15.50;94.60
21459;DHT22;10891;49.350;19.386;2023-05-10T06:01:25;16.50;94.70
21459;DHT22;10891;49.350;19.386;2023-05-10T06:03:56;16.50;93.50
21459;DHT22;10891;49.350;19.386;2023-05-10T06:06:23;16.80;94.10
21459;DHT22;10891;49.350;19.386;2023-05-10T06:08:52;17.40;93.70
21459;DHT22;10891;49.350;19.386;2023-05-10T06:11:19;18.30;92.90
21459;DHT22;10891;49.350;19.386;2023-05-10T06:13:47;19.40;92.10
21459;DHT22;10891;49.350;19.386;2023-05-10T06:16:14;19.50;91.40
21459;DHT22;10891;49.350;19.386;2023-05-10T06:18:41;18.90;91.70
21459;DHT22;10891;49.350;19.386;2023-05-10T06:21:09;18.10;92.60
21459;DHT22;10891;49.350;19.386;2023-05-10T06:23:36;17.70;93.40
21459;DHT22;10891;49.350;19.386;2023-05-10T06:26:03;17.80;93.20
21459;DHT22;10891;49.350;19.386;2023-05-10T06:28:30;17.80;93.80
21459;DHT22;10891;49.350;19.386;2023-05-10T06:30:59;17.30;93.40
21459;DHT22;10891;49.350;19.386;2023-05-10T06:33:25;17.30;93.20
21459;DHT22;10891;49.350;19.386;2023-05-10T06:35:53;17.00;94.00
21459;DHT22;10891;49.350;19.386;2023-05-10T06:38:21;17.20;94.10
21459;DHT22;10891;49.350;19.386;2023-05-10T06:40:48;16.30;94.50
21459;DHT22;10891;49.350;19.386;2023-05-10T06:43:15;16.70;95.60
21459;DHT22;10891;49.350;19.386;2023-05-10T06:45:42;16.10;95.60
21459;DHT22;10891;49.350;19.386;2023-05-10T06:48:09;16.10;95.30
21459;DHT22;10891;49.350;19.386;2023-05-10T06:50:36;16.60;95.70
21459;DHT22;10891;49.350;19.386;2023-05-10T06:53:02;16.00;94.90
21459;DHT22;10891;49.350;19.386;2023-05-10T06:55:31;16.00;95.50
21459;DHT22;10891;49.350;19.386;2023-05-10T06:57:58;15.80;95.80
21459;DHT22;10891;49.350;19.386;2023-05-10T07:00:25;15.70;96.00
21459;DHT22;10891;49.350;19.386;2023-05-10T07:02:52;15.70;96.20
21459;DHT22;10891;49.350;19.386;2023-05-10T07:05:19;16.00;95.90
21459;DHT22;10891;49.350;19.386;2023-05-10T07:07:46;15.30;96.00
21459;DHT22;10891;49.350;19.386;2023-05-10T07:10:13;15.50;96.30
21459;DHT22;10891;49.350;19.386;2023-05-10T07:12:41;15.10;96.50
21459;DHT22;10891;49.350;19.386;2023-05-10T07:15:09;14.80;97.10
21459;DHT22;10891;49.350;19.386;2023-05-10T07:17:36;14.80;98.30
21459;DHT22;10891;49.350;19.386;2023-05-10T07:20:03;15.00;97.50
21459;DHT22;10891;49.350;19.386;2023-05-10T07:22:30;15.10;96.80
21459;DHT22;10891;49.350;19.386;2023-05-10T07:24:57;15.10;98.20
21459;DHT22;10891;49.350;19.386;2023-05-10T07:27:24;14.90;98.00
21459;DHT22;10891;49.350;19.386;2023-05-10T07:29:53;14.40;97.60
21459;DHT22;10891;49.350;19.386;2023-05-10T07:32:20;14.10;98.60
21459;DHT22;10891;49.350;19.386;2023-05-10T07:34:47;14.30;98.70
21459;DHT22;10891;49.350;19.386;2023-05-10T07:37:14;14.10;98.80
21459;DHT22;10891;49.350;19.386;2023-05-10T07:39:40;14.60;98.60
21459;DHT22;10891;49.350;19.386;2023-05-10T07:42:07;14.50;99.10
21459;DHT22;10891;49.350;19.386;2023-05-10T07:44:34;14.20;99.10
21459;DHT22;10891;49.350;19.386;2023-05-10T07:47:02;14.10;99.80
21459;DHT22;10891;49.350;19.386;2023-05-10T07:49:29;13.70;99.90
21459;DHT22;10891;49.350;19.386;2023-05-10T07:51:56;13.40;99.50
21459;DHT22;10891;49.350;19.386;2023-05-10T07:54:23;13.40;99.60
21459;DHT22;10891;49.350;19.386;2023-05-10T07:56:51;13.20;99.90
21459;DHT22;10891;49.350;19.386;2023-05-10T07:59:18;13.20;99.90
21459;DHT22;10891;49.350;19.386;2023-05-10T08:01:45;13.30;99.90
21459;DHT22;10891;49.350;19.386;2023-05-10T08:04:13;13.90;99.10
21459;DHT22;10891;49.350;19.386;2023-05-10T08:06:40;14.30;99.00
21459;DHT22;10891;49.350;19.386;2023-05-10T08:09:08;14.70;98.20
21459;DHT22;10891;49.350;19.386;2023-05-10T08:11:35;15.10;98.50
21459;DHT22;10891;49.350;19.386;2023-05-10T08:14:02;15.30;97.30
21459;DHT22;10891;49.350;19.386;2023-05-10T08:16:28;15.40;97.30
21459;DHT22;10891;49.350;19.386;2023-05-10T08:18:55;15.50;96.40
21459;DHT22;10891;49.350;19.386;2023-05-10T08:21:24;15.70;96.10
21459;DHT22;10891;49.350;19.386;2023-05-10T08:23:51;15.70;96.00
21459;DHT22;10891;49.350;19.386;2023-05-10T08:26:18;15.90;95.90
21459;DHT22;10891;49.350;19.386;2023-05-10T08:28:46;16.10;96.40
21459;DHT22;10891;49.350;19.386;2023-05-10T08:31:13;16.20;95.60
21459;DHT22;10891;49.350;19.386;2023-05-10T08:33:40;16.20;94.80
21459;DHT22;10891;49.350;19.386;2023-05-10T08:36:07;16.10;95.50
21459;DHT22;10891;49.350;19.386;2023-05-10T08:38:35;16.20;95.80
21459;DHT22;10891;49.350;19.386;2023-05-10T08:41:02;15.90;94.70
21459;DHT22;10891;49.350;19.386;2023-05-10T08:43:29;15.80;94.70
21459;DHT22;10891;49.350;19.386;2023-05-10T08:46:00;16.20;95.80
21459;DHT22;10891;49.350;19.386;2023-05-10T08:48:29;16.60;94.70
21459;DHT22;10891;49.350;19.386;2023-05-10T08:50:58;16.70;94.90
21459;DHT22;10891;49.350;19.386;2023-05-10T08:53:26;16.80;94.40
21459;DHT22;10891;49.350;19.386;2023-05-10T08:55:55;17.00;94.20
21459;DHT22;10891;49.350;19.386;2023-05-10T08:58:22;16.70;94.50
21459;DHT22;10891;49.350;19.386;2023-05-10T09:00:49;16.70;96.90
21459;DHT22;10891;49.350;19.386;2023-05-10T09:03:17;16.80;94.90
21459;DHT22;10891;49.350;19.386;2023-05-10T09:05:44;16.70;94.20
21459;DHT22;10891;49.350;19.386;2023-05-10T09:08:12;16.70;94.00
21459;DHT22;10891;49.350;19.386;2023-05-10T09:10:42;16.70;94.30
21459;DHT22;10891;49.350;19.386;2023-05-10T09:13:11;17.00;93.20
21459;DHT22;10891;49.350;19.386;2023-05-10T09:15:38;17.30;93.00
21459;DHT22;10891;49.350;19.386;2023-05-10T09:18:05;17.50;93.60
21459;DHT22;10891;49.350;19.386;2023-05-10T09:20:32;17.10;94.10
21459;DHT22;10891;49.350;19.386;2023-05-10T09:22:59;16.90;94.30
21459;DHT22;10891;49.350;19.386;2023-05-10T09:25:26;17.30;92.80
21459;DHT22;10891;49.350;19.386;2023-05-10T09:27:52;17.70;92.50
21459;DHT22;10891;49.350;19.386;2023-05-10T09:30:25;18.00;91.80
21459;DHT22;10891;49.350;19.386;2023-05-10T09:32:54;17.80;92.50
21459;DHT22;10891;49.350;19.386;2023-05-10T09:35:22;17.00;92.50
21459;DHT22;10891;49.350;19.386;2023-05-10T09:37:52;17.10;92.60
21459;DHT22;10891;49.350;19.386;2023-05-10T09:40:20;17.20;92.80
21459;DHT22;10891;49.350;19.386;2023-05-10T09:42:57;17.40;92.40
21459;DHT22;10891;49.350;19.386;2023-05-10T09:45:27;17.70;92.10
21459;DHT22;10891;49.350;19.386;2023-05-10T09:47:54;17.50;93.10
21459;DHT22;10891;49.350;19.386;2023-05-10T09:50:22;17.40;92.50
21459;DHT22;10891;49.350;19.386;2023-05-10T09:52:50;17.60;93.50
21459;DHT22;10891;49.350;19.386;2023-05-10T09:55:19;17.70;93.00
21459;DHT22;10891;49.350;19.386;2023-05-10T09:57:46;18.00;91.20
21459;DHT22;10891;49.350;19.386;2023-05-10T10:00:18;18.50;92.10
21459;DHT22;10891;49.350;19.386;2023-05-10T10:02:48;18.70;91.20
21459;DHT22;10891;49.350;19.386;2023-05-10T10:05:15;19.20;90.50
21459;DHT22;10891;49.350;19.386;2023-05-10T10:07:42;19.60;90.70
21459;DHT22;10891;49.350;19.386;2023-05-10T10:10:09;19.60;91.40
21459;DHT22;10891;49.350;19.386;2023-05-10T10:12:40;19.50;90.70
21459;DHT22;10891;49.350;19.386;2023-05-10T10:15:08;19.50;91.30
21459;DHT22;10891;49.350;19.386;2023-05-10T10:17:36;19.90;91.70
21459;DHT22;10891;49.350;19.386;2023-05-10T10:20:07;19.90;90.30
21459;DHT22;10891;49.350;19.386;2023-05-10T10:22:36;19.90;90.70
21459;DHT22;10891;49.350;19.386;2023-05-10T10:25:04;19.90;91.00
21459;DHT22;10891;49.350;19.386;2023-05-10T10:27:39;19.60;91.20
21459;DHT22;10891;49.350;19.386;2023-05-10T10:30:18;19.50;90.80
21459;DHT22;10891;49.350;19.386;2023-05-10T10:33:02;19.40;91.00
21459;DHT22;10891;49.350;19.386;2023-05-10T10:35:36;19.20;90.80
21459;DHT22;10891;49.350;19.386;2023-05-10T10:38:03;18.90;91.30
21459;DHT22;10891;49.350;19.386;2023-05-10T10:40:32;18.90;91.10
21459;DHT22;10891;49.350;19.386;2023-05-10T10:43:23;18.90;91.20
21459;DHT22;10891;49.350;19.386;2023-05-10T10:46:14;18.90;91.40
21459;DHT22;10891;49.350;19.386;2023-05-10T10:48:47;19.10;91.30
21459;DHT22;10891;49.350;19.386;2023-05-10T10:51:16;19.30;90.60
21459;DHT22;10891;49.350;19.386;2023-05-10T10:53:43;19.50;89.50
21459;DHT22;10891;49.350;19.386;2023-05-10T10:56:11;19.40;90.40
21459;DHT22;10891;49.350;19.386;2023-05-10T10:58:39;19.80;90.30
21459;DHT22;10891;49.350;19.386;2023-05-10T11:01:11;20.00;90.20
21459;DHT22;10891;49.350;19.386;2023-05-10T11:03:38;20.00;88.20
21459;DHT22;10891;49.350;19.386;2023-05-10T11:06:05;20.10;88.00
21459;DHT22;10891;49.350;19.386;2023-05-10T11:08:41;20.10;87.30
21459;DHT22;10891;49.350;19.386;2023-05-10T11:11:08;20.10;88.00
21459;DHT22;10891;49.350;19.386;2023-05-10T11:13:39;20.20;86.70
21459;DHT22;10891;49.350;19.386;2023-05-10T11:16:17;20.20;86.30
21459;DHT22;10891;49.350;19.386;2023-05-10T11:19:09;20.10;86.20
21459;DHT22;10891;49.350;19.386;2023-05-10T11:21:45;19.70;90.00
21459;DHT22;10891;49.350;19.386;2023-05-10T11:24:16;19.60;90.90
21459;DHT22;10891;49.350;19.386;2023-05-10T11:26:49;19.80;90.50
21459;DHT22;10891;49.350;19.386;2023-05-10T11:29:22;19.70;90.20
21459;DHT22;10891;49.350;19.386;2023-05-10T11:31:57;19.80;90.90
21459;DHT22;10891;49.350;19.386;2023-05-10T11:34:25;19.90;89.00
21459;DHT22;10891;49.350;19.386;2023-05-10T11:36:56;20.10;90.80
21459;DHT22;10891;49.350;19.386;2023-05-10T11:39:31;19.80;89.70
21459;DHT22;10891;49.350;19.386;2023-05-10T11:41:59;20.00;88.90
21459;DHT22;10891;49.350;19.386;2023-05-10T11:44:29;20.10;88.90
21459;DHT22;10891;49.350;19.386;2023-05-10T11:46:58;20.10;88.90
21459;DHT22;10891;49.350;19.386;2023-05-10T11:49:28;19.80;87.60
21459;DHT22;10891;49.350;19.386;2023-05-10T11:52:07;19.40;87.90
21459;DHT22;10891;49.350;19.386;2023-05-10T11:54:36;19.30;88.80
21459;DHT22;10891;49.350;19.386;2023-05-10T11:57:03;19.20;90.00
21459;DHT22;10891;49.350;19.386;2023-05-10T11:59:31;19.10;89.80
21459;DHT22;10891;49.350;19.386;2023-05-10T12:01:58;19.00;89.20
21459;DHT22;10891;49.350;19.386;2023-05-10T12:04:26;18.90;90.20
21459;DHT22;10891;49.350;19.386;2023-05-10T12:06:54;19.00;90.40
21459;DHT22;10891;49.350;19.386;2023-05-10T12:09:22;19.20;90.10
21459;DHT22;10891;49.350;19.386;2023-05-10T12:11:55;19.30;88.50
21459;DHT22;10891;49.350;19.386;2023-05-10T12:14:23;19.30;86.50
21459;DHT22;10891;49.350;19.386;2023-05-10T12:16:51;19.10;88.20
21459;DHT22;10891;49.350;19.386;2023-05-10T12:19:19;19.00;88.40
21459;DHT22;10891;49.350;19.386;2023-05-10T12:21:47;19.10;89.80
21459;DHT22;10891;49.350;19.386;2023-05-10T12:24:17;19.10;90.30
21459;DHT22;10891;49.350;19.386;2023-05-10T12:26:45;18.90;89.80
21459;DHT22;10891;49.350;19.386;2023-05-10T12:29:17;18.60;90.10
21459;DHT22;10891;49.350;19.386;2023-05-10T12:31:54;18.10;91.80
21459;DHT22;10891;49.350;19.386;2023-05-10T12:34:31;17.90;91.30
21459;DHT22;10891;49.350;19.386;2023-05-10T12:36:59;17.80;91.90
21459;DHT22;10891;49.350;19.386;2023-05-10T12:39:39;17.80;92.00
21459;DHT22;10891;49.350;19.386;2023-05-10T12:42:06;17.70;92.70
21459;DHT22;10891;49.350;19.386;2023-05-10T12:44:34;17.70;92.80
21459;DHT22;10891;49.350;19.386;2023-05-10T12:47:01;17.60;93.10
21459;DHT22;10891;49.350;19.386;2023-05-10T12:49:28;17.50;92.60
21459;DHT22;10891;49.350;19.386;2023-05-10T12:51:55;17.60;93.00
21459;DHT22;10891;49.350;19.386;2023-05-10T12:54:22;17.60;93.10
21459;DHT22;10891;49.350;19.386;2023-05-10T12:56:49;17.40;93.70
21459;DHT22;10891;49.350;19.386;2023-05-10T12:59:16;17.40;94.50
21459;DHT22;10891;49.350;19.386;2023-05-10T13:01:44;17.40;93.60
21459;DHT22;10891;49.350;19.386;2023-05-10T13:04:11;17.50;93.60
21459;DHT22;10891;49.350;19.386;2023-05-10T13:06:38;17.50;93.00
21459;DHT22;10891;49.350;19.386;2023-05-10T13:09:05;17.80;93.10
21459;DHT22;10891;49.350;19.386;2023-05-10T13:11:32;17.80;93.10
21459;DHT22;10891;49.350;19.386;2023-05-10T13:13:59;17.90;93.50
21459;DHT22;10891;49.350;19.386;2023-05-10T13:16:26;18.00;93.40
21459;DHT22;10891;49.350;19.386;2023-05-10T13:18:54;18.00;92.60
21459;DHT22;10891;49.350;19.386;2023-05-10T13:21:21;18.00;92.40
21459;DHT22;10891;49.350;19.386;2023-05-10T13:23:49;18.20;93.20
21459;DHT22;10891;49.350;19.386;2023-05-10T13:26:16;18.30;93.50
21459;DHT22;10891;49.350;19.386;2023-05-10T13:28:43;18.50;93.30
21459;DHT22;10891;49.350;19.386;2023-05-10T13:31:11;18.50;92.90
21459;DHT22;10891;49.350;19.386;2023-05-10T13:33:38;18.40;92.70
21459;DHT22;10891;49.350;19.386;2023-05-10T13:36:07;18.40;93.10
21459;DHT22;10891;49.350;19.386;2023-05-10T13:38:34;18.50;92.60
21459;DHT22;10891;49.350;19.386;2023-05-10T13:41:01;18.60;92.10
21459;DHT22;10891;49.350;19.386;2023-05-10T13:43:29;18.80;92.10
21459;DHT22;10891;49.350;19.386;2023-05-10T13:45:56;18.80;91.80
21459;DHT22;10891;49.350;19.386;2023-05-10T13:48:23;18.70;92.00
21459;DHT22;10891;49.350;19.386;2023-05-10T13:50:50;18.70;92.50
21459;DHT22;10891;49.350;19.386;2023-05-10T13:53:19;18.70;91.90
21459;DHT22;10891;49.350;19.386;2023-05-10T13:55:47;18.70;92.00
21459;DHT22;10891;49.350;19.386;2023-05-10T13:58:15;18.60;91.90
21459;DHT22;10891;49.350;19.386;2023-05-10T14:00:42;18.40;91.90
21459;DHT22;10891;49.350;19.386;2023-05-10T14:03:09;18.20;92.60
21459;DHT22;10891;49.350;19.386;2023-05-10T14:05:36;18.40;93.10
21459;DHT22;10891;49.350;19.386;2023-05-10T14:08:03;18.30;92.00
21459;DHT22;10891;49.350;19.386;2023-05-10T14:10:31;18.20;92.50
21459;DHT22;10891;49.350;19.386;2023-05-10T14:12:58;17.90;92.90
21459;DHT22;10891;49.350;19.386;2023-05-10T14:15:25;17.70;92.80
21459;DHT22;10891;49.350;19.386;2023-05-10T14:17:52;17.60;93.10
21459;DHT22;10891;49.350;19.386;2023-05-10T14:20:19;17.50;93.40
21459;DHT22;10891;49.350;19.386;2023-05-10T14:22:46;17.40;93.80
21459;DHT22;10891;49.350;19.386;2023-05-10T14:25:13;17.40;94.00
21459;DHT22;10891;49.350;19.386;2023-05-10T14:27:42;17.20;93.20
21459;DHT22;10891;49.350;19.386;2023-05-10T14:30:10;17.20;92.90
21459;DHT22;10891;49.350;19.386;2023-05-10T14:32:37;17.10;93.50
21459;DHT22;10891;49.350;19.386;2023-05-10T14:35:04;17.10;93.70
21459;DHT22;10891;49.350;19.386;2023-05-10T14:37:31;17.10;93.20
21459;DHT22;10891;49.350;19.386;2023-05-10T14:39:58;17.00;94.10
21459;DHT22;10891;49.350;19.386;2023-05-10T14:42:25;17.00;94.00
21459;DHT22;10891;49.350;19.386;2023-05-10T14:44:54;17.00;93.60
21459;DHT22;10891;49.350;19.386;2023-05-10T14:47:21;17.10;94.50
21459;DHT22;10891;49.350;19.386;2023-05-10T14:49:48;17.20;94.10
21459;DHT22;10891;49.350;19.386;2023-05-10T14:52:14;17.30;93.80
21459;DHT22;10891;49.350;19.386;2023-05-10T14:54:42;17.40;93.80
21459;DHT22;10891;49.350;19.386;2023-05-10T14:57:09;17.40;92.90
21459;DHT22;10891;49.350;19.386;2023-05-10T14:59:36;17.40;93.00
21459;DHT22;10891;49.350;19.386;2023-05-10T15:02:04;17.50;93.10
21459;DHT22;10891;49.350;19.386;2023-05-10T15:04:31;17.40;92.40
21459;DHT22;10891;49.350;19.386;2023-05-10T15:06:58;17.50;92.20
21459;DHT22;10891;49.350;19.386;2023-05-10T15:09:25;17.70;91.40
21459;DHT22;10891;49.350;19.386;2023-05-10T15:11:53;17.70;91.40
21459;DHT22;10891;49.350;19.386;2023-05-10T15:14:20;17.80;91.00
21459;DHT22;10891;49.350;19.386;2023-05-10T15:16:47;17.80;91.20
21459;DHT22;10891;49.350;19.386;2023-05-10T15:19:15;17.90;91.40
21459;DHT22;10891;49.350;19.386;2023-05-10T15:21:42;17.80;91.40
21459;DHT22;10891;49.350;19.386;2023-05-10T15:24:10;17.70;91.70
21459;DHT22;10891;49.350;19.386;2023-05-10T15:26:36;17.80;92.20
21459;DHT22;10891;49.350;19.386;2023-05-10T15:29:04;17.90;91.80